sensor_id;sensor_type;location;lat;lon;timestamp;temperature;humidity
21895;DHT22;11112;51.270;7.224;2024-01-25T00:01:30;10.00;99.90
21895;DHT22;11112;51.270;7.224;2024-01-25T00:04:18;10.00;99.90
21895;DHT22;11112;51.270;7.224;2024-01-25T00:07:12;10.10;99.90
21895;DHT22;11112;51.270;7.224;2024-01-25T00:09:53;10.00;99.90
21895;DHT22;11112;51.270;7.224;2024-01-25T00:12:44;10.00;99.90
21895;DHT22;11112;51.270;7.224;2024-01-25T00:15:33;10.00;99.90
21895;DHT22;11112;51.270;7.224;2024-01-25T00:18:29;10.00;99.90
21895;DHT22;11112;51.270;7.224;2024-01-25T00:21:25;10.00;99.90
21895;DHT22;11112;51.270;7.224;2024-01-25T00:24:12;10.00;99.90
21895;DHT22;11112;51.270;7.224;2024-01-25T00:27:01;10.10;99.90
21895;DHT22;11112;51.270;7.224;2024-01-25T00:29:55;10.10;99.90
21895;DHT22;11112;51.270;7.224;2024-01-25T00:32:40;10.10;99.90
21895;DHT22;11112;51.270;7.224;2024-01-25T00:35:42;10.00;99.90
21895;DHT22;11112;51.270;7.224;2024-01-25T00:38:35;10.00;99.90
21895;DHT22;11112;51.270;7.224;2024-01-25T00:41:22;10.00;99.90
21895;DHT22;11112;51.270;7.224;2024-01-25T00:44:18;10.00;99.90
21895;DHT22;11112;51.270;7.224;2024-01-25T00:47:11;9.90;99.90
21895;DHT22;11112;51.270;7.224;2024-01-25T00:50:02;10.00;99.90
21895;DHT22;11112;51.270;7.224;2024-01-25T00:53:02;10.00;99.90
21895;DHT22;11112;51.270;7.224;2024-01-25T00:55:54;9.90;99.90
21895;DHT22;11112;51.270;7.224;2024-01-25T00:58:46;10.00;99.90
21895;DHT22;11112;51.270;7.224;2024-01-25T01:01:49;10.00;99.90
21895;DHT22;11112;51.270;7.224;2024-01-25T01:04:39;9.90;99.90
21895;DHT22;11112;51.270;7.224;2024-01-25T01:07:40;9.90;99.90
21895;DHT22;11112;51.270;7.224;2024-01-25T01:10:29;10.00;99.90
21895;DHT22;11112;51.270;7.224;2024-01-25T01:13:17;10.00;99.90
21895;DHT22;11112;51.270;7.224;2024-01-25T01:16:09;10.00;99.90
21895;DHT22;11112;51.270;7.224;2024-01-25T01:18:59;10.00;99.90
21895;DHT22;11112;51.270;7.224;2024-01-25T01:21:47;10.00;99.90
21895;DHT22;11112;51.270;7.224;2024-01-25T01:24:27;10.00;99.90
21895;DHT22;11112;51.270;7.224;2024-01-25T01:27:18;10.00;99.90
21895;DHT22;11112;51.270;7.224;2024-01-25T01:30:02;10.00;99.90
21895;DHT22;11112;51.270;7.224;2024-01-25T01:32:55;10.00;99.90
21895;DHT22;11112;51.270;7.224;2024-01-25T01:35:40;10.00;99.90
21895;DHT22;11112;51.270;7.224;2024-01-25T01:38:27;9.90;99.90
21895;DHT22;11112;51.270;7.224;2024-01-25T01:41:16;9.90;99.90
21895;DHT22;11112;51.270;7.224;2024-01-25T01:44:03;9.90;99.90
21895;DHT22;11112;51.270;7.224;2024-01-25T01:46:51;9.90;99.90
21895;DHT22;11112;51.270;7.224;2024-01-25T01:49:44;9.90;99.90
21895;DHT22;11112;51.270;7.224;2024-01-25T01:52:32;9.90;99.90
21895;DHT22;11112;51.270;7.224;2024-01-25T01:55:17;9.90;99.90
21895;DHT22;11112;51.270;7.224;2024-01-25T01:58:08;9.90;99.90
21895;DHT22;11112;51.270;7.224;2024-01-25T02:01:01;9.80;99.90
21895;DHT22;11112;51.270;7.224;2024-01-25T02:03:42;9.80;99.90
21895;DHT22;11112;51.270;7.224;2024-01-25T02:06:35;9.80;99.90
21895;DHT22;11112;51.270;7.224;2024-01-25T02:09:21;9.80;99.90
21895;DHT22;11112;51.270;7.224;2024-01-25T02:12:20;9.90;99.90
21895;DHT22;11112;51.270;7.224;2024-01-25T02:15:13;9.90;99.90
21895;DHT22;11112;51.270;7.224;2024-01-25T02:18:09;9.80;99.90
21895;DHT22;11112;51.270;7.224;2024-01-25T02:21:07;9.90;99.90
21895;DHT22;11112;51.270;7.224;2024-01-25T02:24:14;9.90;99.90
21895;DHT22;11112;51.270;7.224;2024-01-25T02:27:03;9.90;99.90
21895;DHT22;11112;51.270;7.224;2024-01-25T02:29:52;9.90;99.90
21895;DHT22;11112;51.270;7.224;2024-01-25T02:32:44;9.90;99.90
21895;DHT22;11112;51.270;7.224;2024-01-25T02:35:33;9.80;99.90
21895;DHT22;11112;51.270;7.224;2024-01-25T02:38:20;9.80;99.90
21895;DHT22;11112;51.270;7.224;2024-01-25T02:41:00;9.80;99.90
21895;DHT22;11112;51.270;7.224;2024-01-25T02:43:47;9.80;99.90
21895;DHT22;11112;51.270;7.224;2024-01-25T02:46:29;9.80;99.90
21895;DHT22;11112;51.270;7.224;2024-01-25T02:49:18;9.80;99.90
21895;DHT22;11112;51.270;7.224;2024-01-25T02:52:09;9.80;99.90
21895;DHT22;11112;51.270;7.224;2024-01-25T02:54:52;9.80;99.90
21895;DHT22;11112;51.270;7.224;2024-01-25T02:57:37;9.80;99.90
21895;DHT22;11112;51.270;7.224;2024-01-25T03:00:22;9.80;99.90
21895;DHT22;11112;51.270;7.224;2024-01-25T03:03:13;9.80;99.90
21895;DHT22;11112;51.270;7.224;2024-01-25T03:06:03;9.80;99.90
21895;DHT22;11112;51.270;7.224;2024-01-25T03:08:56;9.80;99.90
21895;DHT22;11112;51.270;7.224;2024-01-25T03:11:35;9.80;99.90
21895;DHT22;11112;51.270;7.224;2024-01-25T03:14:16;9.80;99.90
21895;DHT22;11112;51.270;7.224;2024-01-25T03:17:08;9.80;99.90
21895;DHT22;11112;51.270;7.224;2024-01-25T03:19:50;9.80;99.90
21895;DHT22;11112;51.270;7.224;2024-01-25T03:22:29;9.80;99.90
21895;DHT22;11112;51.270;7.224;2024-01-25T03:25:23;9.80;99.90
21895;DHT22;11112;51.270;7.224;2024-01-25T03:28:11;9.80;99.90
21895;DHT22;11112;51.270;7.224;2024-01-25T03:31:04;9.80;99.90
21895;DHT22;11112;51.270;7.224;2024-01-25T03:33:54;9.80;99.90
21895;DHT22;11112;51.270;7.224;2024-01-25T03:36:37;9.80;99.90
21895;DHT22;11112;51.270;7.224;2024-01-25T03:39:28;9.70;99.90
21895;DHT22;11112;51.270;7.224;2024-01-25T03:42:18;9.80;99.90
21895;DHT22;11112;51.270;7.224;2024-01-25T03:45:16;9.70;99.90
21895;DHT22;11112;51.270;7.224;2024-01-25T03:48:07;9.70;99.90
21895;DHT22;11112;51.270;7.224;2024-01-25T03:51:03;9.70;99.90
21895;DHT22;11112;51.270;7.224;2024-01-25T03:53:54;9.70;99.90
21895;DHT22;11112;51.270;7.224;2024-01-25T03:56:52;9.70;99.90
21895;DHT22;11112;51.270;7.224;2024-01-25T03:59:48;9.70;99.90
21895;DHT22;11112;51.270;7.224;2024-01-25T04:02:37;9.70;99.90
21895;DHT22;11112;51.270;7.224;2024-01-25T04:05:29;9.70;99.90
21895;DHT22;11112;51.270;7.224;2024-01-25T04:08:19;9.70;99.90
21895;DHT22;11112;51.270;7.224;2024-01-25T04:11:10;9.70;99.90
21895;DHT22;11112;51.270;7.224;2024-01-25T04:13:44;9.70;99.90
21895;DHT22;11112;51.270;7.224;2024-01-25T04:16:20;9.70;99.90
21895;DHT22;11112;51.270;7.224;2024-01-25T04:19:08;9.70;99.90
21895;DHT22;11112;51.270;7.224;2024-01-25T04:22:00;9.70;99.90
21895;DHT22;11112;51.270;7.224;2024-01-25T04:24:51;9.60;99.90
21895;DHT22;11112;51.270;7.224;2024-01-25T04:27:39;9.70;99.90
21895;DHT22;11112;51.270;7.224;2024-01-25T04:30:33;9.70;99.90
21895;DHT22;11112;51.270;7.224;2024-01-25T04:33:18;9.60;99.90
21895;DHT22;11112;51.270;7.224;2024-01-25T04:36:04;9.60;99.90
21895;DHT22;11112;51.270;7.224;2024-01-25T04:38:57;9.70;99.90
21895;DHT22;11112;51.270;7.224;2024-01-25T04:41:55;9.70;99.90
21895;DHT22;11112;51.270;7.224;2024-01-25T04:44:54;9.70;99.90
21895;DHT22;11112;51.270;7.224;2024-01-25T04:47:44;9.60;99.90
21895;DHT22;11112;51.270;7.224;2024-01-25T04:50:34;9.60;99.90
21895;DHT22;11112;51.270;7.224;2024-01-25T04:53:28;9.60;99.90
21895;DHT22;11112;51.270;7.224;2024-01-25T04:56:23;9.60;99.90
21895;DHT22;11112;51.270;7.224;2024-01-25T04:59:11;9.60;99.90
21895;DHT22;11112;51.270;7.224;2024-01-25T05:02:04;9.60;99.90
21895;DHT22;11112;51.270;7.224;2024-01-25T05:04:50;9.60;99.90
21895;DHT22;11112;51.270;7.224;2024-01-25T05:07:39;9.60;99.90
21895;DHT22;11112;51.270;7.224;2024-01-25T05:10:22;9.50;99.90
21895;DHT22;11112;51.270;7.224;2024-01-25T05:13:12;9.50;99.90
21895;DHT22;11112;51.270;7.224;2024-01-25T05:15:54;9.50;99.90
21895;DHT22;11112;51.270;7.224;2024-01-25T05:18:49;9.50;99.90
21895;DHT22;11112;51.270;7.224;2024-01-25T05:21:38;9.50;99.90
21895;DHT22;11112;51.270;7.224;2024-01-25T05:24:33;9.50;99.90
21895;DHT22;11112;51.270;7.224;2024-01-25T05:27:13;9.50;99.90
21895;DHT22;11112;51.270;7.224;2024-01-25T05:30:08;9.40;99.90
21895;DHT22;11112;51.270;7.224;2024-01-25T05:32:52;9.40;99.90
21895;DHT22;11112;51.270;7.224;2024-01-25T05:35:41;9.40;99.90
21895;DHT22;11112;51.270;7.224;2024-01-25T05:38:29;9.40;99.90
21895;DHT22;11112;51.270;7.224;2024-01-25T05:41:18;9.40;99.90
21895;DHT22;11112;51.270;7.224;2024-01-25T05:44:05;9.40;99.90
21895;DHT22;11112;51.270;7.224;2024-01-25T05:46:52;9.40;99.90
21895;DHT22;11112;51.270;7.224;2024-01-25T05:49:39;9.40;99.90
21895;DHT22;11112;51.270;7.224;2024-01-25T05:52:34;9.40;99.90
21895;DHT22;11112;51.270;7.224;2024-01-25T05:55:25;9.40;99.90
21895;DHT22;11112;51.270;7.224;2024-01-25T05:58:13;9.30;99.90
21895;DHT22;11112;51.270;7.224;2024-01-25T06:01:05;9.40;99.90
21895;DHT22;11112;51.270;7.224;2024-01-25T06:03:51;9.30;99.90
21895;DHT22;11112;51.270;7.224;2024-01-25T06:06:48;9.30;99.90
21895;DHT22;11112;51.270;7.224;2024-01-25T06:09:37;9.30;99.90
21895;DHT22;11112;51.270;7.224;2024-01-25T06:12:34;9.30;99.90
21895;DHT22;11112;51.270;7.224;2024-01-25T06:15:24;9.30;99.90
21895;DHT22;11112;51.270;7.224;2024-01-25T06:18:06;9.30;99.90
21895;DHT22;11112;51.270;7.224;2024-01-25T06:21:26;9.30;99.90
21895;DHT22;11112;51.270;7.224;2024-01-25T06:24:13;9.30;99.90
21895;DHT22;11112;51.270;7.224;2024-01-25T06:26:59;9.30;99.90
21895;DHT22;11112;51.270;7.224;2024-01-25T06:29:42;9.30;99.90
21895;DHT22;11112;51.270;7.224;2024-01-25T06:32:30;9.30;99.90
21895;DHT22;11112;51.270;7.224;2024-01-25T06:35:05;9.30;99.90
21895;DHT22;11112;51.270;7.224;2024-01-25T06:38:04;9.30;99.90
21895;DHT22;11112;51.270;7.224;2024-01-25T06:40:56;9.30;99.90
21895;DHT22;11112;51.270;7.224;2024-01-25T06:43:48;9.30;99.90
21895;DHT22;11112;51.270;7.224;2024-01-25T06:46:44;9.30;99.90
21895;DHT22;11112;51.270;7.224;2024-01-25T06:49:34;9.30;99.90
21895;DHT22;11112;51.270;7.224;2024-01-25T06:52:27;9.20;99.90
21895;DHT22;11112;51.270;7.224;2024-01-25T06:55:32;9.20;99.90
21895;DHT22;11112;51.270;7.224;2024-01-25T06:58:33;9.20;99.90
21895;DHT22;11112;51.270;7.224;2024-01-25T07:01:28;9.20;99.90
21895;DHT22;11112;51.270;7.224;2024-01-25T07:04:21;9.20;99.90
21895;DHT22;11112;51.270;7.224;2024-01-25T07:07:13;9.20;99.90
21895;DHT22;11112;51.270;7.224;2024-01-25T07:10:03;9.20;99.90
21895;DHT22;11112;51.270;7.224;2024-01-25T07:13:02;9.20;99.90
21895;DHT22;11112;51.270;7.224;2024-01-25T07:15:56;9.20;99.90
21895;DHT22;11112;51.270;7.224;2024-01-25T07:18:47;9.20;99.90
21895;DHT22;11112;51.270;7.224;2024-01-25T07:21:38;9.20;99.90
21895;DHT22;11112;51.270;7.224;2024-01-25T07:24:29;9.20;99.90
21895;DHT22;11112;51.270;7.224;2024-01-25T07:27:44;9.20;99.90
21895;DHT22;11112;51.270;7.224;2024-01-25T07:30:37;9.20;99.90
21895;DHT22;11112;51.270;7.224;2024-01-25T07:33:23;9.20;99.90
21895;DHT22;11112;51.270;7.224;2024-01-25T07:36:10;9.20;99.90
21895;DHT22;11112;51.270;7.224;2024-01-25T07:38:40;9.20;99.90
21895;DHT22;11112;51.270;7.224;2024-01-25T07:41:15;9.20;99.90
21895;DHT22;11112;51.270;7.224;2024-01-25T07:44:06;9.20;99.90
21895;DHT22;11112;51.270;7.224;2024-01-25T07:46:53;9.20;99.90
21895;DHT22;11112;51.270;7.224;2024-01-25T07:49:43;9.10;99.90
21895;DHT22;11112;51.270;7.224;2024-01-25T07:52:30;9.20;99.90
21895;DHT22;11112;51.270;7.224;2024-01-25T07:55:23;9.10;99.90
21895;DHT22;11112;51.270;7.224;2024-01-25T07:58:11;9.10;99.90
21895;DHT22;11112;51.270;7.224;2024-01-25T08:01:07;9.20;99.90
21895;DHT22;11112;51.270;7.224;2024-01-25T08:03:55;9.20;99.90
21895;DHT22;11112;51.270;7.224;2024-01-25T08:06:43;9.20;99.90
21895;DHT22;11112;51.270;7.224;2024-01-25T08:09:32;9.20;99.90
21895;DHT22;11112;51.270;7.224;2024-01-25T08:12:28;9.20;99.90
21895;DHT22;11112;51.270;7.224;2024-01-25T08:15:25;9.20;99.90
21895;DHT22;11112;51.270;7.224;2024-01-25T08:18:26;9.20;99.90
21895;DHT22;11112;51.270;7.224;2024-01-25T08:21:15;9.20;99.90
21895;DHT22;11112;51.270;7.224;2024-01-25T08:24:02;9.20;99.90
21895;DHT22;11112;51.270;7.224;2024-01-25T08:26:39;9.20;99.90
21895;DHT22;11112;51.270;7.224;2024-01-25T08:29:38;9.20;99.90
21895;DHT22;11112;51.270;7.224;2024-01-25T08:32:13;9.20;99.90
21895;DHT22;11112;51.270;7.224;2024-01-25T08:35:08;9.20;99.90
21895;DHT22;11112;51.270;7.224;2024-01-25T08:37:48;9.20;99.90
21895;DHT22;11112;51.270;7.224;2024-01-25T08:40:38;9.20;99.90
21895;DHT22;11112;51.270;7.224;2024-01-25T08:43:27;9.20;99.90
21895;DHT22;11112;51.270;7.224;2024-01-25T08:46:12;9.20;99.90
21895;DHT22;11112;51.270;7.224;2024-01-25T08:49:06;9.10;99.90
21895;DHT22;11112;51.270;7.224;2024-01-25T08:51:59;9.20;99.90
21895;DHT22;11112;51.270;7.224;2024-01-25T08:54:52;9.10;99.90
21895;DHT22;11112;51.270;7.224;2024-01-25T08:57:46;9.20;99.90
21895;DHT22;11112;51.270;7.224;2024-01-25T09:00:35;9.10;99.90
21895;DHT22;11112;51.270;7.224;2024-01-25T09:03:22;9.20;99.90
21895;DHT22;11112;51.270;7.224;2024-01-25T09:06:11;9.10;99.90
21895;DHT22;11112;51.270;7.224;2024-01-25T09:09:10;9.10;99.90
21895;DHT22;11112;51.270;7.224;2024-01-25T09:12:02;9.20;99.90
21895;DHT22;11112;51.270;7.224;2024-01-25T09:14:54;9.20;99.90
21895;DHT22;11112;51.270;7.224;2024-01-25T09:17:53;9.20;99.90
21895;DHT22;11112;51.270;7.224;2024-01-25T09:20:34;9.20;99.90
21895;DHT22;11112;51.270;7.224;2024-01-25T09:23:11;9.20;99.90
21895;DHT22;11112;51.270;7.224;2024-01-25T09:26:04;9.20;99.90
21895;DHT22;11112;51.270;7.224;2024-01-25T09:28:47;9.20;99.90
21895;DHT22;11112;51.270;7.224;2024-01-25T09:31:39;9.20;99.90
21895;DHT22;11112;51.270;7.224;2024-01-25T09:34:28;9.10;99.90
21895;DHT22;11112;51.270;7.224;2024-01-25T09:37:23;9.20;99.90
21895;DHT22;11112;51.270;7.224;2024-01-25T09:40:19;9.20;99.90
21895;DHT22;11112;51.270;7.224;2024-01-25T09:43:18;9.20;99.90
21895;DHT22;11112;51.270;7.224;2024-01-25T09:46:17;9.20;99.90
21895;DHT22;11112;51.270;7.224;2024-01-25T09:49:00;9.20;99.90
21895;DHT22;11112;51.270;7.224;2024-01-25T09:51:56;9.20;99.90
21895;DHT22;11112;51.270;7.224;2024-01-25T09:54:44;9.20;99.90
21895;DHT22;11112;51.270;7.224;2024-01-25T09:57:48;9.20;99.90
21895;DHT22;11112;51.270;7.224;2024-01-25T10:00:57;9.20;99.90
21895;DHT22;11112;51.270;7.224;2024-01-25T10:03:43;9.20;99.90
21895;DHT22;11112;51.270;7.224;2024-01-25T10:06:31;9.20;99.90
21895;DHT22;11112;51.270;7.224;2024-01-25T10:09:07;9.30;99.90
21895;DHT22;11112;51.270;7.224;2024-01-25T10:11:58;9.20;99.90
21895;DHT22;11112;51.270;7.224;2024-01-25T10:14:49;9.20;99.90
21895;DHT22;11112;51.270;7.224;2024-01-25T10:17:41;9.20;99.90
21895;DHT22;11112;51.270;7.224;2024-01-25T10:20:31;9.30;99.90
21895;DHT22;11112;51.270;7.224;2024-01-25T10:23:19;9.30;99.90
21895;DHT22;11112;51.270;7.224;2024-01-25T10:26:13;9.30;99.90
21895;DHT22;11112;51.270;7.224;2024-01-25T10:28:53;9.30;99.90
21895;DHT22;11112;51.270;7.224;2024-01-25T10:31:29;9.30;99.90
21895;DHT22;11112;51.270;7.224;2024-01-25T10:34:20;9.30;99.90
21895;DHT22;11112;51.270;7.224;2024-01-25T10:37:21;9.30;99.90
21895;DHT22;11112;51.270;7.224;2024-01-25T10:40:19;9.30;99.90
21895;DHT22;11112;51.270;7.224;2024-01-25T10:43:07;9.30;99.90
21895;DHT22;11112;51.270;7.224;2024-01-25T10:46:04;9.30;99.90
21895;DHT22;11112;51.270;7.224;2024-01-25T10:49:03;9.30;99.90
21895;DHT22;11112;51.270;7.224;2024-01-25T10:51:57;9.40;99.90
21895;DHT22;11112;51.270;7.224;2024-01-25T10:54:46;9.40;99.90
21895;DHT22;11112;51.270;7.224;2024-01-25T10:57:48;9.40;99.90
21895;DHT22;11112;51.270;7.224;2024-01-25T11:00:36;9.40;99.90
21895;DHT22;11112;51.270;7.224;2024-01-25T11:03:24;9.50;99.90
21895;DHT22;11112;51.270;7.224;2024-01-25T11:06:15;9.50;99.90
21895;DHT22;11112;51.270;7.224;2024-01-25T11:09:15;9.50;99.90
21895;DHT22;11112;51.270;7.224;2024-01-25T11:12:17;9.50;99.90
21895;DHT22;11112;51.270;7.224;2024-01-25T11:15:10;9.50;99.90
21895;DHT22;11112;51.270;7.224;2024-01-25T11:18:15;9.60;99.90
21895;DHT22;11112;51.270;7.224;2024-01-25T11:21:10;9.60;99.90
21895;DHT22;11112;51.270;7.224;2024-01-25T11:24:21;9.60;99.90
21895;DHT22;11112;51.270;7.224;2024-01-25T11:27:11;9.60;99.90
21895;DHT22;11112;51.270;7.224;2024-01-25T11:29:57;9.50;99.90
21895;DHT22;11112;51.270;7.224;2024-01-25T11:33:05;9.50;99.90
21895;DHT22;11112;51.270;7.224;2024-01-25T11:36:01;9.50;99.90
21895;DHT22;11112;51.270;7.224;2024-01-25T11:38:51;9.60;99.90
21895;DHT22;11112;51.270;7.224;2024-01-25T11:41:43;9.60;99.90
21895;DHT22;11112;51.270;7.224;2024-01-25T11:44:41;9.60;99.90
21895;DHT22;11112;51.270;7.224;2024-01-25T11:47:31;9.60;99.90
21895;DHT22;11112;51.270;7.224;2024-01-25T11:50:06;9.70;99.90
21895;DHT22;11112;51.270;7.224;2024-01-25T11:53:03;9.70;99.90
21895;DHT22;11112;51.270;7.224;2024-01-25T11:55:53;9.70;99.90
21895;DHT22;11112;51.270;7.224;2024-01-25T11:58:47;9.80;99.90
21895;DHT22;11112;51.270;7.224;2024-01-25T12:01:48;9.80;99.90
21895;DHT22;11112;51.270;7.224;2024-01-25T12:04:36;9.80;99.90
21895;DHT22;11112;51.270;7.224;2024-01-25T12:07:23;9.80;99.90
21895;DHT22;11112;51.270;7.224;2024-01-25T12:10:16;9.80;99.90
21895;DHT22;11112;51.270;7.224;2024-01-25T12:13:11;9.80;99.90
21895;DHT22;11112;51.270;7.224;2024-01-25T12:16:02;9.80;99.90
21895;DHT22;11112;51.270;7.224;2024-01-25T12:18:50;9.80;99.90
21895;DHT22;11112;51.270;7.224;2024-01-25T12:21:39;9.90;99.90
21895;DHT22;11112;51.270;7.224;2024-01-25T12:24:32;9.90;99.90
21895;DHT22;11112;51.270;7.224;2024-01-25T12:27:19;9.80;99.90
21895;DHT22;11112;51.270;7.224;2024-01-25T12:30:16;9.90;99.90
21895;DHT22;11112;51.270;7.224;2024-01-25T12:33:07;9.80;99.90
21895;DHT22;11112;51.270;7.224;2024-01-25T12:35:53;9.80;99.90
21895;DHT22;11112;51.270;7.224;2024-01-25T12:38:40;9.80;99.90
21895;DHT22;11112;51.270;7.224;2024-01-25T12:41:35;9.80;99.90
21895;DHT22;11112;51.270;7.224;2024-01-25T12:44:20;9.80;99.90
21895;DHT22;11112;51.270;7.224;2024-01-25T12:47:07;9.80;99.90
21895;DHT22;11112;51.270;7.224;2024-01-25T12:50:22;9.80;99.90
21895;DHT22;11112;51.270;7.224;2024-01-25T12:53:09;9.80;99.90
21895;DHT22;11112;51.270;7.224;2024-01-25T12:55:57;9.80;99.90
21895;DHT22;11112;51.270;7.224;2024-01-25T12:58:56;9.80;99.90
21895;DHT22;11112;51.270;7.224;2024-01-25T13:01:41;9.80;99.90
21895;DHT22;11112;51.270;7.224;2024-01-25T13:04:19;9.90;99.90
21895;DHT22;11112;51.270;7.224;2024-01-25T13:07:10;9.90;99.90
21895;DHT22;11112;51.270;7.224;2024-01-25T13:10:02;9.90;99.90
21895;DHT22;11112;51.270;7.224;2024-01-25T13:13:01;9.90;99.90
21895;DHT22;11112;51.270;7.224;2024-01-25T13:15:48;9.90;99.90
21895;DHT22;11112;51.270;7.224;2024-01-25T13:18:30;9.90;99.90
21895;DHT22;11112;51.270;7.224;2024-01-25T13:21:13;9.90;99.90
21895;DHT22;11112;51.270;7.224;2024-01-25T13:24:09;9.90;99.90
21895;DHT22;11112;51.270;7.224;2024-01-25T13:27:06;9.90;99.90
21895;DHT22;11112;51.270;7.224;2024-01-25T13:30:03;9.90;99.90
21895;DHT22;11112;51.270;7.224;2024-01-25T13:33:00;9.90;99.90
21895;DHT22;11112;51.270;7.224;2024-01-25T13:35:43;9.90;99.90
21895;DHT22;11112;51.270;7.224;2024-01-25T13:38:40;9.80;99.90
21895;DHT22;11112;51.270;7.224;2024-01-25T13:41:25;9.90;99.90
21895;DHT22;11112;51.270;7.224;2024-01-25T13:44:13;9.90;99.90
21895;DHT22;11112;51.270;7.224;2024-01-25T13:47:01;9.90;99.90
21895;DHT22;11112;51.270;7.224;2024-01-25T13:49:48;9.90;99.90
21895;DHT22;11112;51.270;7.224;2024-01-25T13:52:43;9.80;99.90
21895;DHT22;11112;51.270;7.224;2024-01-25T13:55:27;9.90;99.90
21895;DHT22;11112;51.270;7.224;2024-01-25T13:58:10;9.90;99.90
21895;DHT22;11112;51.270;7.224;2024-01-25T14:00:56;9.90;99.90
21895;DHT22;11112;51.270;7.224;2024-01-25T14:04:01;9.90;99.90
21895;DHT22;11112;51.270;7.224;2024-01-25T14:06:53;9.90;99.90
21895;DHT22;11112;51.270;7.224;2024-01-25T14:09:32;9.90;99.90
21895;DHT22;11112;51.270;7.224;2024-01-25T14:12:09;9.90;99.90
21895;DHT22;11112;51.270;7.224;2024-01-25T14:15:03;9.90;99.90
21895;DHT22;11112;51.270;7.224;2024-01-25T14:18:27;9.90;99.90
21895;DHT22;11112;51.270;7.224;2024-01-25T14:21:20;9.90;99.90
21895;DHT22;11112;51.270;7.224;2024-01-25T14:23:59;9.90;99.90
21895;DHT22;11112;51.270;7.224;2024-01-25T14:26:50;9.90;99.90
21895;DHT22;11112;51.270;7.224;2024-01-25T14:29:37;9.90;99.90
21895;DHT22;11112;51.270;7.224;2024-01-25T14:32:34;9.90;99.90
21895;DHT22;11112;51.270;7.224;2024-01-25T14:35:28;9.90;99.90
21895;DHT22;11112;51.270;7.224;2024-01-25T14:38:19;9.90;99.90
21895;DHT22;11112;51.270;7.224;2024-01-25T14:41:09;9.90;99.90
21895;DHT22;11112;51.270;7.224;2024-01-25T14:44:06;9.90;99.90
21895;DHT22;11112;51.270;7.224;2024-01-25T14:46:57;9.90;99.90
21895;DHT22;11112;51.270;7.224;2024-01-25T14:49:56;9.90;99.90
21895;DHT22;11112;51.270;7.224;2024-01-25T14:52:41;9.90;99.90
21895;DHT22;11112;51.270;7.224;2024-01-25T14:55:28;9.90;99.90
21895;DHT22;11112;51.270;7.224;2024-01-25T14:58:19;9.90;99.90
21895;DHT22;11112;51.270;7.224;2024-01-25T15:01:13;9.90;99.90
21895;DHT22;11112;51.270;7.224;2024-01-25T15:04:06;9.90;99.90
21895;DHT22;11112;51.270;7.224;2024-01-25T15:07:03;10.00;99.90
21895;DHT22;11112;51.270;7.224;2024-01-25T15:10:00;9.90;99.90
21895;DHT22;11112;51.270;7.224;2024-01-25T15:12:54;10.00;99.90
21895;DHT22;11112;51.270;7.224;2024-01-25T15:15:45;9.90;99.90
21895;DHT22;11112;51.270;7.224;2024-01-25T15:18:35;9.90;99.90
21895;DHT22;11112;51.270;7.224;2024-01-25T15:21:29;9.90;99.90
21895;DHT22;11112;51.270;7.224;2024-01-25T15:24:25;9.90;99.90
21895;DHT22;11112;51.270;7.224;2024-01-25T15:27:15;9.80;99.90
21895;DHT22;11112;51.270;7.224;2024-01-25T15:30:05;9.90;99.90
21895;DHT22;11112;51.270;7.224;2024-01-25T15:32:55;9.80;99.90
21895;DHT22;11112;51.270;7.224;2024-01-25T15:35:34;9.80;99.90
21895;DHT22;11112;51.270;7.224;2024-01-25T15:38:12;9.80;99.90
21895;DHT22;11112;51.270;7.224;2024-01-25T15:41:07;9.70;99.90
21895;DHT22;11112;51.270;7.224;2024-01-25T15:43:58;9.70;99.90
21895;DHT22;11112;51.270;7.224;2024-01-25T15:46:44;9.80;99.90
21895;DHT22;11112;51.270;7.224;2024-01-25T15:49:35;9.80;99.90
21895;DHT22;11112;51.270;7.224;2024-01-25T15:52:27;9.70;99.90
21895;DHT22;11112;51.270;7.224;2024-01-25T15:55:18;9.70;99.90
21895;DHT22;11112;51.270;7.224;2024-01-25T15:58:16;9.70;99.90
21895;DHT22;11112;51.270;7.224;2024-01-25T16:00:56;9.70;99.90
21895;DHT22;11112;51.270;7.224;2024-01-25T16:03:31;9.70;99.90
21895;DHT22;11112;51.270;7.224;2024-01-25T16:06:34;9.70;99.90
21895;DHT22;11112;51.270;7.224;2024-01-25T16:09:23;9.60;99.90
21895;DHT22;11112;51.270;7.224;2024-01-25T16:12:14;9.70;99.90
21895;DHT22;11112;51.270;7.224;2024-01-25T16:15:13;9.70;99.90
21895;DHT22;11112;51.270;7.224;2024-01-25T16:18:03;9.60;99.90
21895;DHT22;11112;51.270;7.224;2024-01-25T16:21:03;9.70;99.90
21895;DHT22;11112;51.270;7.224;2024-01-25T16:23:53;9.60;99.90
21895;DHT22;11112;51.270;7.224;2024-01-25T16:26:42;9.70;99.90
21895;DHT22;11112;51.270;7.224;2024-01-25T16:29:42;9.60;99.90
21895;DHT22;11112;51.270;7.224;2024-01-25T16:32:29;9.60;99.90
21895;DHT22;11112;51.270;7.224;2024-01-25T16:35:28;9.60;99.90
21895;DHT22;11112;51.270;7.224;2024-01-25T16:38:20;9.60;99.90
21895;DHT22;11112;51.270;7.224;2024-01-25T16:41:11;9.60;99.90
21895;DHT22;11112;51.270;7.224;2024-01-25T16:44:02;9.60;99.90
21895;DHT22;11112;51.270;7.224;2024-01-25T16:46:50;9.60;99.90
21895;DHT22;11112;51.270;7.224;2024-01-25T16:49:49;9.60;99.90
21895;DHT22;11112;51.270;7.224;2024-01-25T16:52:34;9.60;99.90
21895;DHT22;11112;51.270;7.224;2024-01-25T16:55:24;9.50;99.90
21895;DHT22;11112;51.270;7.224;2024-01-25T16:58:19;9.50;99.90
21895;DHT22;11112;51.270;7.224;2024-01-25T17:01:06;9.50;99.90
21895;DHT22;11112;51.270;7.224;2024-01-25T17:03:51;9.50;99.90
21895;DHT22;11112;51.270;7.224;2024-01-25T17:06:44;9.50;99.90
21895;DHT22;11112;51.270;7.224;2024-01-25T17:09:33;9.50;99.90
21895;DHT22;11112;51.270;7.224;2024-01-25T17:12:29;9.50;99.90
21895;DHT22;11112;51.270;7.224;2024-01-25T17:15:18;9.50;99.90
21895;DHT22;11112;51.270;7.224;2024-01-25T17:18:14;9.50;99.90
21895;DHT22;11112;51.270;7.224;2024-01-25T17:21:07;9.50;99.90
21895;DHT22;11112;51.270;7.224;2024-01-25T17:24:00;9.50;99.90
21895;DHT22;11112;51.270;7.224;2024-01-25T17:26:54;9.50;99.90
21895;DHT22;11112;51.270;7.224;2024-01-25T17:29:43;9.50;99.90
21895;DHT22;11112;51.270;7.224;2024-01-25T17:32:42;9.50;99.90
21895;DHT22;11112;51.270;7.224;2024-01-25T17:35:19;9.50;99.90
21895;DHT22;11112;51.270;7.224;2024-01-25T17:38:14;9.50;99.90
21895;DHT22;11112;51.270;7.224;2024-01-25T17:41:03;9.50;99.90
21895;DHT22;11112;51.270;7.224;2024-01-25T17:43:49;9.50;99.90
21895;DHT22;11112;51.270;7.224;2024-01-25T17:46:17;9.60;99.90
21895;DHT22;11112;51.270;7.224;2024-01-25T17:48:56;9.60;99.90
21895;DHT22;11112;51.270;7.224;2024-01-25T17:51:55;9.60;99.90
21895;DHT22;11112;51.270;7.224;2024-01-25T17:54:50;9.60;99.90
21895;DHT22;11112;51.270;7.224;2024-01-25T17:57:39;9.70;99.90
21895;DHT22;11112;51.270;7.224;2024-01-25T18:00:19;9.70;99.90
21895;DHT22;11112;51.270;7.224;2024-01-25T18:03:12;9.70;99.90
21895;DHT22;11112;51.270;7.224;2024-01-25T18:06:03;9.60;99.90
21895;DHT22;11112;51.270;7.224;2024-01-25T18:08:52;9.70;99.90
21895;DHT22;11112;51.270;7.224;2024-01-25T18:11:42;9.70;99.90
21895;DHT22;11112;51.270;7.224;2024-01-25T18:14:46;9.70;99.90